Time;durP1;ratioP1;P1;durP2;ratioP2;P2;SDS_P1;SDS_P2;PMS_P1;PMS_P2;Temp;Humidity;BMP_temperature;BMP_pressure;BME280_temperature;BME280_humidity;BME280_pressure;Samples;Min_cycle;Max_cycle;Signal;HPM_P1;HPM_P2
2021/04/05 00:00:23;;;;;;;5.67;0.90;;;6.70;46.10;;;;;;4345597;33;20135;-35
2021/04/05 00:02:49;;;;;;;1.30;0.63;;;6.60;46.10;;;;;;4345836;33;20063;-35
2021/04/05 00:05:18;;;;;;;6.93;1.17;;;6.70;46.10;;;;;;4320031;33;20065;-35
2021/04/05 00:07:45;;;;;;;1.43;0.70;;;6.60;46.10;;;;;;4328197;33;20789;-35
2021/04/05 00:10:18;;;;;;;3.43;0.83;;;6.70;46.10;;;;;;4328272;33;20079;-35
2021/04/05 00:12:44;;;;;;;1.53;0.50;;;6.70;46.10;;;;;;4316947;33;20075;-36
2021/04/05 00:15:11;;;;;;;3.23;1.00;;;6.70;46.10;;;;;;4316610;33;20066;-34
2021/04/05 00:17:39;;;;;;;3.23;0.70;;;6.70;46.10;;;;;;4304336;33;20082;-36
2021/04/05 00:20:14;;;;;;;3.67;1.77;;;6.70;46.10;;;;;;4328463;33;20178;-35
2021/04/05 00:22:44;;;;;;;1.45;0.70;;;6.70;46.20;;;;;;4328336;33;20067;-34
2021/04/05 00:25:11;;;;;;;1.93;0.70;;;6.70;46.10;;;;;;4328583;33;20146;-35
2021/04/05 00:27:38;;;;;;;3.80;1.00;;;6.70;46.20;;;;;;4328497;33;20067;-35
2021/04/05 00:30:16;;;;;;;16.50;1.63;;;6.70;46.20;;;;;;4316342;33;20171;-35
2021/04/05 00:32:53;;;;;;;8.32;1.20;;;6.70;46.30;;;;;;4317028;33;20168;-35
2021/04/05 00:35:21;;;;;;;5.23;0.80;;;6.60;46.30;;;;;;4286746;33;20079;-35
2021/04/05 00:37:51;;;;;;;5.37;1.00;;;6.70;46.30;;;;;;4285710;33;20080;-35
2021/04/05 00:40:20;;;;;;;2.33;0.60;;;6.60;46.30;;;;;;4298592;33;20098;-35
2021/04/05 00:42:47;;;;;;;2.03;0.70;;;6.60;46.30;;;;;;4298281;33;20059;-36
2021/04/05 00:45:16;;;;;;;4.60;1.13;;;6.60;46.30;;;;;;4286408;33;20568;-36
2021/04/05 00:47:45;;;;;;;5.63;1.00;;;6.60;46.30;;;;;;4298984;33;20087;-37
2021/04/05 00:50:41;;;;;;;11.97;1.77;;;6.60;46.30;;;;;;4298998;33;20594;-36
2021/04/05 00:53:09;;;;;;;14.07;1.20;;;6.60;46.40;;;;;;4293078;33;20082;-35
2021/04/05 00:55:38;;;;;;;9.23;1.23;;;6.60;46.30;;;;;;4299008;33;20647;-36
2021/04/05 00:58:04;;;;;;;4.63;1.00;;;6.70;46.30;;;;;;4286361;33;20087;-36
2021/04/05 01:00:54;;;;;;;1.20;0.80;;;6.70;46.30;;;;;;4298158;33;20163;-34
2021/04/05 01:03:23;;;;;;;6.77;1.67;;;6.60;46.20;;;;;;4269705;33;20076;-35
2021/04/05 01:06:04;;;;;;;1.50;0.90;;;6.70;46.20;;;;;;4269577;33;20065;-36
2021/04/05 01:08:30;;;;;;;10.27;1.50;;;6.60;46.10;;;;;;4269324;33;20084;-35
2021/04/05 01:10:57;;;;;;;4.57;1.43;;;6.60;46.10;;;;;;4257297;33;20095;-35
2021/04/05 01:13:23;;;;;;;5.40;1.00;;;6.60;46.20;;;;;;4290949;33;20068;-35
2021/04/05 01:15:50;;;;;;;11.97;2.20;;;6.50;46.20;;;;;;4300522;33;20079;-35
2021/04/05 01:18:17;;;;;;;13.03;1.20;;;6.50;46.30;;;;;;4312534;33;20091;-34
2021/04/05 01:20:44;;;;;;;7.97;0.80;;;6.50;46.40;;;;;;4302587;33;20052;-34
2021/04/05 01:23:11;;;;;;;24.97;4.30;;;6.40;46.30;;;;;;4262428;33;20469;-34
2021/04/05 01:25:38;;;;;;;9.30;1.43;;;6.40;46.50;;;;;;4274576;33;20203;-35
2021/04/05 01:28:05;;;;;;;26.27;3.43;;;6.40;46.60;;;;;;4297698;33;20079;-35
2021/04/05 01:31:01;;;;;;;26.70;2.13;;;6.40;46.60;;;;;;4298106;33;20258;-36
2021/04/05 01:33:32;;;;;;;24.73;2.90;;;6.40;46.80;;;;;;4272890;33;20083;-35
2021/04/05 01:36:05;;;;;;;37.57;4.17;;;6.30;46.60;;;;;;4297868;33;20068;-35
2021/04/05 01:38:40;;;;;;;48.67;3.83;;;6.30;46.80;;;;;;4298193;33;20527;-36
2021/04/05 01:41:08;;;;;;;;;;;6.20;47.00;;;;;;4298917;33;20100;-35
2021/04/05 01:43:35;;;;;;;26.43;3.17;;;6.20;46.70;;;;;;4297351;33;19970;-35
2021/04/05 01:46:02;;;;;;;13.47;2.13;;;6.10;46.70;;;;;;4297182;33;20513;-35
2021/04/05 01:48:30;;;;;;;22.20;3.43;;;6.00;47.10;;;;;;4297586;33;20087;-35
2021/04/05 01:51:21;;;;;;;24.53;3.40;;;6.00;47.70;;;;;;4297698;33;20076;-34
2021/04/05 01:53:48;;;;;;;9.27;1.80;;;5.80;48.00;;;;;;4297996;33;20606;-36
2021/04/05 01:56:16;;;;;;;25.03;3.83;;;5.80;48.40;;;;;;4298159;33;20079;-36
2021/04/05 01:58:45;;;;;;;50.63;4.73;;;5.80;48.10;;;;;;4297931;33;20087;-36
2021/04/05 02:01:20;;;;;;;10.43;1.60;;;5.70;48.20;;;;;;4298072;33;20075;-34
2021/04/05 02:03:46;;;;;;;7.37;1.42;;;5.70;48.40;;;;;;4297998;33;20488;-35
2021/04/05 02:06:20;;;;;;;5.73;1.10;;;5.60;48.20;;;;;;4285550;33;20096;-34
2021/04/05 02:08:46;;;;;;;12.23;1.30;;;5.60;48.40;;;;;;4299729;33;20091;-34
2021/04/05 02:11:15;;;;;;;5.60;1.27;;;5.60;48.40;;;;;;4329124;33;20056;-33
2021/04/05 02:13:49;;;;;;;24.03;2.77;;;5.60;48.50;;;;;;4330238;32;20071;-35
2021/04/05 02:16:19;;;;;;;31.67;2.83;;;5.60;48.60;;;;;;4345481;32;20078;-35
2021/04/05 02:18:50;;;;;;;10.47;1.67;;;5.60;48.80;;;;;;4363210;32;20059;-35
2021/04/05 02:21:20;;;;;;;38.93;3.83;;;5.60;48.70;;;;;;4364182;32;20518;-35
2021/04/05 02:23:50;;;;;;;46.53;2.90;;;5.60;49.00;;;;;;4364119;32;20142;-36
2021/04/05 02:26:19;;;;;;;32.83;2.97;;;5.60;49.00;;;;;;4362034;32;20062;-36
2021/04/05 02:28:51;;;;;;;15.47;1.67;;;5.60;49.00;;;;;;4362327;32;20066;-36
2021/04/05 02:31:21;;;;;;;19.53;1.50;;;5.50;48.90;;;;;;4363674;32;20057;-36
2021/04/05 02:33:55;;;;;;;24.73;4.30;;;5.60;48.90;;;;;;4362277;32;20754;-35
2021/04/05 02:36:24;;;;;;;28.95;3.97;;;5.60;49.00;;;;;;4364021;32;20154;-34
2021/04/05 02:38:59;;;;;;;19.23;2.17;;;5.60;49.00;;;;;;4363303;32;20491;-35
2021/04/05 02:41:27;;;;;;;;;;;5.60;48.90;;;;;;4362626;32;20066;-35
2021/04/05 02:43:54;;;;;;;27.57;3.53;;;5.60;48.60;;;;;;4362358;32;19961;-37
2021/04/05 02:46:35;;;;;;;27.57;3.43;;;5.70;48.70;;;;;;4349870;32;20075;-35
2021/04/05 02:49:03;;;;;;;35.50;3.77;;;5.80;49.10;;;;;;4350015;32;20086;-35
2021/04/05 02:51:30;;;;;;;33.37;3.57;;;5.80;49.20;;;;;;4362013;32;20145;-37
2021/04/05 02:54:03;;;;;;;24.50;2.37;;;5.90;49.40;;;;;;4349959;32;20064;-35
2021/04/05 02:56:29;;;;;;;12.60;1.60;;;5.90;49.70;;;;;;4361845;32;20066;-36
2021/04/05 02:58:57;;;;;;;17.03;2.47;;;6.10;49.70;;;;;;4363754;32;20523;-38
2021/04/05 03:01:25;;;;;;;9.97;1.90;;;6.20;49.60;;;;;;4363541;32;20536;-38
2021/04/05 03:03:57;;;;;;;20.67;2.20;;;6.30;49.40;;;;;;4363625;32;20078;-37
2021/04/05 03:06:24;;;;;;;48.03;5.23;;;6.60;49.20;;;;;;4362401;32;20063;-37
2021/04/05 03:08:51;;;;;;;31.73;2.13;;;6.80;48.90;;;;;;4364406;32;20077;-37
2021/04/05 03:11:20;;;;;;;17.17;2.00;;;7.00;48.50;;;;;;4363814;32;20242;-38
2021/04/05 03:13:46;;;;;;;35.00;4.87;;;7.20;48.30;;;;;;4365141;32;20059;-38
2021/04/05 03:16:22;;;;;;;30.87;4.90;;;7.50;48.00;;;;;;4365303;32;20058;-38
2021/04/05 03:18:49;;;;;;;22.90;3.27;;;7.80;47.80;;;;;;4365872;32;20186;-36
2021/04/05 03:21:16;;;;;;;9.23;1.63;;;8.10;47.40;;;;;;4364674;32;20097;-37
2021/04/05 03:23:43;;;;;;;28.40;4.30;;;8.40;46.60;;;;;;4365410;32;20094;-37
2021/04/05 03:26:09;;;;;;;20.97;2.57;;;8.70;46.00;;;;;;4364739;32;20149;-37
2021/04/05 03:28:36;;;;;;;7.70;1.57;;;8.90;45.50;;;;;;4363750;32;20066;-37
2021/04/05 03:31:11;;;;;;;21.97;2.40;;;9.20;44.50;;;;;;4363344;32;20089;-37
2021/04/05 03:33:41;;;;;;;14.80;1.30;;;9.50;43.80;;;;;;4350513;32;20062;-38
2021/04/05 03:36:49;;;;;;;27.70;3.17;;;9.70;43.20;;;;;;4353460;32;20149;-36
2021/04/05 03:39:16;;;;;;;34.72;3.25;;;10.00;43.00;;;;;;4352646;32;20067;-37
2021/04/05 03:42:11;;;;;;;17.70;2.30;;;10.20;42.00;;;;;;4351082;33;20082;-36
2021/04/05 03:45:01;;;;;;;24.60;3.12;;;10.40;41.40;;;;;;4351210;33;20067;-37
2021/04/05 03:47:46;;;;;;;29.77;3.40;;;10.60;40.90;;;;;;4354364;32;20176;-37
2021/04/05 03:50:25;;;;;;;18.60;1.50;;;10.70;40.70;;;;;;4342288;33;20055;-38
2021/04/05 03:53:21;;;;;;;8.93;2.60;;;10.90;40.40;;;;;;4353857;33;20063;-37
2021/04/05 03:55:55;;;;;;;13.50;1.98;;;11.00;39.80;;;;;;4355379;33;20073;-37
2021/04/05 03:58:22;;;;;;;15.98;1.48;;;11.20;39.70;;;;;;4343693;33;20059;-37
2021/04/05 04:00:49;;;;;;;10.88;1.40;;;11.30;39.40;;;;;;4327475;33;20079;-37
2021/04/05 04:03:18;;;;;;;31.95;2.37;;;11.50;39.60;;;;;;4327894;33;20070;-37
2021/04/05 04:05:51;;;;;;;20.17;2.12;;;11.70;39.30;;;;;;4316170;33;20097;-37
2021/04/05 04:08:30;;;;;;;15.35;1.73;;;12.00;39.00;;;;;;4331158;33;20535;-36
2021/04/05 04:10:59;;;;;;;49.08;3.97;;;12.30;38.50;;;;;;4322317;33;20113;-38
2021/04/05 04:13:26;;;;;;;19.35;2.03;;;12.60;37.90;;;;;;4329898;33;20070;-39
2021/04/05 04:15:52;;;;;;;17.15;1.98;;;12.80;37.20;;;;;;4334019;33;20133;-38
2021/04/05 04:18:19;;;;;;;17.37;3.20;;;12.90;36.90;;;;;;4334310;33;20055;-38
2021/04/05 04:20:46;;;;;;;22.42;2.37;;;13.10;36.30;;;;;;4322157;33;20151;-37
2021/04/05 04:23:14;;;;;;;43.00;3.40;;;13.30;36.60;;;;;;4305038;33;20072;-37
2021/04/05 04:25:41;;;;;;;31.75;2.47;;;13.50;37.10;;;;;;4306081;33;20048;-38
2021/04/05 04:28:07;;;;;;;53.58;4.15;;;13.70;36.20;;;;;;4282483;33;20068;-38
2021/04/05 04:30:34;;;;;;;25.73;1.73;;;13.90;35.80;;;;;;4306071;33;20071;-39
2021/04/05 04:33:10;;;;;;;29.80;2.50;;;14.10;35.20;;;;;;4335103;33;20140;-38
2021/04/05 04:35:39;;;;;;;12.00;1.35;;;14.30;35.00;;;;;;4341896;33;20179;-39
2021/04/05 04:38:06;;;;;;;29.23;3.55;;;14.40;34.50;;;;;;4349496;33;20063;-38
2021/04/05 04:40:34;;;;;;;56.22;6.12;;;14.60;34.20;;;;;;4319509;33;20508;-39
2021/04/05 04:43:03;;;;;;;28.70;2.55;;;14.70;34.00;;;;;;4320173;33;20063;-39
2021/04/05 04:45:30;;;;;;;23.40;2.50;;;14.90;33.70;;;;;;4308877;33;20060;-39
2021/04/05 04:47:57;;;;;;;30.10;3.90;;;15.00;33.30;;;;;;4320753;33;20539;-39
2021/04/05 04:50:26;;;;;;;36.60;4.93;;;15.10;33.20;;;;;;4321280;33;20202;-38
2021/04/05 04:52:54;;;;;;;22.80;2.70;;;15.20;33.20;;;;;;4321533;33;20091;-38
2021/04/05 04:55:25;;;;;;;23.62;2.90;;;15.30;32.80;;;;;;4308619;33;20111;-39
2021/04/05 04:57:58;;;;;;;31.33;3.08;;;15.40;32.60;;;;;;4320866;33;20159;-38
2021/04/05 05:00:26;;;;;;;11.63;1.75;;;15.50;32.50;;;;;;4338808;33;20076;-37
2021/04/05 05:02:52;;;;;;;19.27;2.37;;;15.60;32.20;;;;;;4363651;33;20062;-40
2021/04/05 05:05:21;;;;;;;23.35;1.60;;;15.70;32.00;;;;;;4350486;33;20128;-39
2021/04/05 05:07:47;;;;;;;12.18;1.85;;;15.60;31.80;;;;;;4349756;33;20102;-40
2021/04/05 05:10:14;;;;;;;32.72;4.72;;;15.60;31.50;;;;;;4337544;33;20128;-40
2021/04/05 05:12:42;;;;;;;16.77;2.28;;;15.60;32.00;;;;;;4378253;32;20099;-39
2021/04/05 05:15:11;;;;;;;34.63;5.47;;;15.60;31.90;;;;;;4379154;32;20085;-39
2021/04/05 05:17:42;;;;;;;47.08;5.28;;;15.70;32.20;;;;;;4379468;32;20053;-39
2021/04/05 05:20:10;;;;;;;27.65;3.10;;;15.80;32.10;;;;;;4379452;32;20074;-39
2021/04/05 05:22:41;;;;;;;24.25;5.32;;;16.00;31.90;;;;;;4379245;32;20019;-39
2021/04/05 05:25:08;;;;;;;22.30;3.33;;;16.10;31.60;;;;;;4379251;32;20118;-40
2021/04/05 05:27:41;;;;;;;19.20;3.45;;;16.30;31.20;;;;;;4378038;32;20070;-41
2021/04/05 05:30:10;;;;;;;9.00;1.85;;;16.40;31.00;;;;;;4379047;32;20054;-40
2021/04/05 05:32:37;;;;;;;7.00;1.33;;;16.60;30.50;;;;;;4378417;32;20123;-38
2021/04/05 05:35:07;;;;;;;7.32;1.45;;;16.60;30.00;;;;;;4376179;32;20061;-38
2021/04/05 05:37:33;;;;;;;17.15;3.20;;;16.40;30.20;;;;;;4375222;32;20122;-40
2021/04/05 05:40:00;;;;;;;17.62;1.60;;;16.30;30.60;;;;;;4374589;32;20099;-39
2021/04/05 05:42:36;;;;;;;22.45;7.40;;;16.30;30.60;;;;;;4377389;32;20130;-39
2021/04/05 05:45:08;;;;;;;26.15;5.95;;;16.20;30.60;;;;;;4376412;32;20055;-39
2021/04/05 05:48:42;;;;;;;17.85;2.42;;;16.00;30.40;;;;;;4374921;32;20049;-39
2021/04/05 05:51:28;;;;;;;13.70;1.65;;;16.00;30.70;;;;;;4290183;32;20087;-40
2021/04/05 05:54:39;;;;;;;8.00;1.35;;;15.90;30.90;;;;;;4370774;32;20058;-39
2021/04/05 05:57:21;;;;;;;34.35;3.55;;;15.90;31.00;;;;;;4363588;32;20063;-39
2021/04/05 06:00:04;;;;;;;3.47;0.80;;;16.10;31.00;;;;;;4374674;32;20053;-39
2021/04/05 06:02:48;;;;;;;10.55;1.30;;;16.20;30.10;;;;;;4375085;32;20063;-38
2021/04/05 06:05:55;;;;;;;6.97;1.00;;;16.30;30.10;;;;;;4374044;32;20138;-40
2021/04/05 06:09:08;;;;;;;9.32;1.92;;;16.40;30.00;;;;;;4370918;32;20086;-39
2021/04/05 06:11:59;;;;;;;12.18;2.83;;;16.50;30.00;;;;;;4373715;32;20069;-38
2021/04/05 06:14:47;;;;;;;24.42;2.58;;;16.70;30.50;;;;;;4372065;32;20059;-39
2021/04/05 06:18:05;;;;;;;4.80;0.90;;;16.80;30.00;;;;;;4374148;32;20061;-38
2021/04/05 06:20:51;;;;;;;15.48;1.40;;;17.00;29.90;;;;;;4368599;32;20260;-38
2021/04/05 06:23:50;;;;;;;8.50;1.67;;;17.10;29.80;;;;;;4375352;32;20139;-39
2021/04/05 06:26:39;;;;;;;16.15;2.92;;;17.10;29.80;;;;;;4313860;33;20063;-36
2021/04/05 06:29:35;;;;;;;10.73;1.85;;;17.00;29.80;;;;;;4287894;33;20095;-38
2021/04/05 06:32:30;;;;;;;;;;;17.00;29.80;;;;;;4311077;33;20544;-37
2021/04/05 06:35:54;;;;;;;24.48;3.20;;;17.00;29.90;;;;;;4295687;33;20379;-38
2021/04/05 06:38:32;;;;;;;12.50;2.42;;;16.90;29.90;;;;;;4279708;33;20071;-39
2021/04/05 06:41:26;;;;;;;6.20;1.55;;;16.80;29.70;;;;;;4308298;33;20070;-38
2021/04/05 06:44:18;;;;;;;12.48;2.30;;;16.70;30.00;;;;;;4283666;33;20163;-39
2021/04/05 06:47:48;;;;;;;15.43;2.90;;;16.60;30.00;;;;;;4306533;33;20067;-39
2021/04/05 06:50:58;;;;;;;4.80;1.75;;;16.50;30.30;;;;;;4247452;33;20092;-39
2021/04/05 06:54:24;;;;;;;33.28;3.45;;;16.50;30.60;;;;;;4244937;33;20097;-40
2021/04/05 06:57:12;;;;;;;6.03;1.40;;;16.60;30.80;;;;;;4243807;33;20140;-39
2021/04/05 07:00:23;;;;;;;9.38;2.10;;;16.80;30.30;;;;;;4250840;33;20092;-39
2021/04/05 07:03:17;;;;;;;14.77;2.42;;;16.90;30.00;;;;;;4235056;33;20093;-40
2021/04/05 07:06:19;;;;;;;6.00;1.35;;;16.90;30.40;;;;;;4241233;33;20083;-38
2021/04/05 07:09:20;;;;;;;14.23;1.80;;;17.10;30.10;;;;;;4240196;33;20069;-40
2021/04/05 07:12:05;;;;;;;8.20;2.10;;;17.30;30.00;;;;;;4236887;33;20061;-39
2021/04/05 07:14:41;;;;;;;;;;;17.50;29.90;;;;;;4228862;34;20142;-40
2021/04/05 07:17:46;;;;;;;9.98;2.17;;;17.70;30.00;;;;;;4227603;34;20446;-39
2021/04/05 07:20:37;;;;;;;31.80;3.53;;;18.00;29.50;;;;;;4228222;34;20076;-37
2021/04/05 07:23:44;;;;;;;11.93;2.37;;;18.20;29.50;;;;;;4228579;34;20640;-40
2021/04/05 07:26:23;;;;;;;8.23;1.85;;;18.40;29.20;;;;;;4251874;33;20552;-42
2021/04/05 07:29:09;;;;;;;30.42;2.65;;;18.50;29.10;;;;;;4289587;33;20080;-39
2021/04/05 07:32:20;;;;;;;17.15;1.70;;;18.70;28.80;;;;;;4297561;33;20075;-40
2021/04/05 07:35:07;;;;;;;12.65;1.42;;;19.00;28.60;;;;;;4301734;33;20075;-40
2021/04/05 07:38:05;;;;;;;18.37;2.65;;;19.20;28.20;;;;;;4311498;33;20059;-39
2021/04/05 07:40:59;;;;;;;16.27;2.65;;;19.30;28.00;;;;;;4336393;33;20059;-40
2021/04/05 07:43:50;;;;;;;12.18;1.95;;;19.40;28.00;;;;;;4344243;33;20075;-40
2021/04/05 07:46:22;;;;;;;21.92;2.65;;;19.50;28.00;;;;;;4356129;33;20136;-41
2021/04/05 07:49:31;;;;;;;11.98;2.65;;;19.60;27.90;;;;;;4350894;32;20062;-40
2021/04/05 07:52:32;;;;;;;19.12;2.92;;;19.70;27.60;;;;;;4301137;33;20095;-39
2021/04/05 07:55:00;;;;;;;8.82;1.73;;;19.90;27.50;;;;;;4304478;33;20080;-40
2021/04/05 07:57:50;;;;;;;12.77;1.92;;;20.00;27.00;;;;;;4301161;33;20158;-40
2021/04/05 08:00:33;;;;;;;10.57;1.67;;;20.00;27.10;;;;;;4299778;33;20083;-39
2021/04/05 08:03:17;;;;;;;6.25;1.27;;;20.10;26.80;;;;;;4302914;33;20186;-40
2021/04/05 08:06:00;;;;;;;30.83;3.47;;;20.20;26.80;;;;;;4288718;33;20071;-39
2021/04/05 08:08:43;;;;;;;6.05;1.60;;;20.20;27.00;;;;;;4299469;33;20141;-40
2021/04/05 08:11:37;;;;;;;9.30;2.15;;;20.20;26.80;;;;;;4304319;33;20135;-39
2021/04/05 08:14:50;;;;;;;6.07;1.58;;;20.20;26.80;;;;;;4315354;33;20133;-39
2021/04/05 08:17:54;;;;;;;5.53;1.30;;;20.30;26.80;;;;;;4300994;33;20082;-39
2021/04/05 08:21:02;;;;;;;8.35;1.33;;;20.40;26.60;;;;;;4313935;33;20086;-40
2021/04/05 08:24:22;;;;;;;3.05;0.95;;;20.30;26.60;;;;;;4290452;33;20071;-41
2021/04/05 08:27:23;;;;;;;11.07;1.62;;;20.20;26.60;;;;;;4261684;33;20203;-39
2021/04/05 08:30:07;;;;;;;5.28;1.10;;;20.00;26.50;;;;;;4288070;33;20154;-39
2021/04/05 08:32:48;;;;;;;4.60;1.37;;;19.90;26.50;;;;;;4299715;33;20075;-40
2021/04/05 08:35:35;;;;;;;13.20;1.15;;;19.70;26.60;;;;;;4299658;33;20088;-39
2021/04/05 08:38:42;;;;;;;8.05;1.00;;;19.70;26.90;;;;;;4288071;33;20108;-39
2021/04/05 08:41:32;;;;;;;4.28;1.00;;;19.50;26.80;;;;;;4301181;33;20076;-39
2021/04/05 08:44:26;;;;;;;37.17;3.28;;;19.50;26.80;;;;;;4300118;33;20094;-39
2021/04/05 08:46:54;;;;;;;14.45;1.23;;;19.30;27.10;;;;;;4287810;33;20139;-38
2021/04/05 08:49:21;;;;;;;7.75;0.80;;;19.40;26.90;;;;;;4275964;33;20622;-39
2021/04/05 08:52:08;;;;;;;17.87;3.67;;;19.40;26.90;;;;;;4288817;33;20528;-40
2021/04/05 08:54:37;;;;;;;20.33;1.60;;;19.60;26.80;;;;;;4289533;33;20074;-40
2021/04/05 08:57:27;;;;;;;4.47;1.00;;;19.70;26.70;;;;;;4290385;33;20070;-39
2021/04/05 09:00:07;;;;;;;15.25;1.75;;;19.70;26.20;;;;;;4304213;33;20654;-41
2021/04/05 09:02:38;;;;;;;5.90;0.80;;;19.70;26.40;;;;;;4322622;33;20059;-40
2021/04/05 09:05:23;;;;;;;17.25;0.73;;;19.60;26.20;;;;;;4349450;33;20058;-40
2021/04/05 09:08:03;;;;;;;;;;;19.70;26.20;;;;;;4339067;33;20070;-40
2021/04/05 09:10:43;;;;;;;18.95;2.42;;;19.80;26.30;;;;;;4327813;33;20051;-40
2021/04/05 09:13:13;;;;;;;11.02;0.85;;;19.80;25.80;;;;;;4327958;33;20082;-39
2021/04/05 09:16:24;;;;;;;9.35;0.60;;;19.70;25.80;;;;;;4329446;33;20616;-41
2021/04/05 09:19:33;;;;;;;14.73;2.12;;;19.70;25.80;;;;;;4303953;33;20086;-40
2021/04/05 09:22:35;;;;;;;6.65;0.60;;;19.60;26.00;;;;;;4327661;33;20058;-40
2021/04/05 09:25:47;;;;;;;11.63;0.82;;;19.70;26.00;;;;;;4327686;33;20528;-40
2021/04/05 09:28:39;;;;;;;11.30;1.25;;;19.70;26.00;;;;;;4307771;33;20125;-38
2021/04/05 09:31:48;;;;;;;38.30;3.17;;;19.60;26.10;;;;;;4315632;33;20168;-40
2021/04/05 09:34:52;;;;;;;25.58;1.55;;;19.50;26.20;;;;;;4327310;33;20070;-39
2021/04/05 09:38:08;;;;;;;1.67;0.40;;;19.50;26.10;;;;;;4305435;33;20071;-40
2021/04/05 09:40:40;;;;;;;28.35;3.03;;;19.30;25.70;;;;;;4308217;33;20068;-39
2021/04/05 09:43:47;;;;;;;41.35;3.28;;;19.10;26.00;;;;;;4342152;33;20070;-38
2021/04/05 09:46:40;;;;;;;9.95;1.02;;;18.90;26.30;;;;;;4341789;33;20070;-38
2021/04/05 09:49:27;;;;;;;11.38;1.30;;;18.90;26.50;;;;;;4341738;33;20227;-41
2021/04/05 09:52:40;;;;;;;6.12;0.60;;;18.90;26.20;;;;;;4344776;33;20083;-39
2021/04/05 09:55:11;;;;;;;36.28;3.97;;;18.80;26.10;;;;;;4344401;33;20062;-39
2021/04/05 09:58:00;;;;;;;26.02;1.40;;;18.70;26.10;;;;;;4330812;33;20070;-39
2021/04/05 10:00:27;;;;;;;9.82;1.02;;;18.70;26.10;;;;;;4344259;33;20066;-39
2021/04/05 10:03:08;;;;;;;7.87;1.33;;;18.70;26.00;;;;;;4331104;33;20074;-38
2021/04/05 10:05:41;;;;;;;8.93;0.62;;;18.60;25.90;;;;;;4344310;32;20621;-38
2021/04/05 10:08:14;;;;;;;24.35;1.20;;;18.60;25.80;;;;;;4331783;33;20583;-39
2021/04/05 10:10:41;;;;;;;6.03;0.70;;;18.50;26.20;;;;;;4331576;33;20086;-38
2021/04/05 10:13:07;;;;;;;17.90;1.58;;;18.50;26.10;;;;;;4330345;33;20066;-39
2021/04/05 10:15:33;;;;;;;18.33;0.60;;;18.50;26.00;;;;;;4329997;33;20070;-39
2021/04/05 10:18:00;;;;;;;29.00;2.58;;;18.60;25.80;;;;;;4330676;33;20136;-39
2021/04/05 10:20:31;;;;;;;9.70;1.10;;;18.70;25.90;;;;;;4330941;33;20467;-39
2021/04/05 10:23:05;;;;;;;12.68;1.50;;;18.80;25.60;;;;;;4342943;33;20102;-39
2021/04/05 10:25:31;;;;;;;20.10;1.37;;;18.90;25.40;;;;;;4343082;33;20105;-39
2021/04/05 10:28:00;;;;;;;45.42;3.40;;;18.90;25.50;;;;;;4330814;33;20065;-39
2021/04/05 10:30:32;;;;;;;22.92;2.03;;;19.00;25.60;;;;;;4343041;33;20074;-40
2021/04/05 10:33:15;;;;;;;35.55;2.90;;;19.00;25.50;;;;;;4331831;33;20051;-38
2021/04/05 10:35:48;;;;;;;28.80;2.60;;;19.10;25.50;;;;;;4330558;33;20175;-40
2021/04/05 10:38:18;;;;;;;12.35;1.05;;;19.20;25.50;;;;;;4342198;32;20561;-40
2021/04/05 10:40:44;;;;;;;20.48;1.20;;;19.30;25.20;;;;;;4346735;32;20537;-41
2021/04/05 10:43:36;;;;;;;4.18;0.75;;;19.40;25.10;;;;;;4332563;33;20070;-41
2021/04/05 10:46:16;;;;;;;7.50;0.60;;;19.50;24.90;;;;;;4334638;33;20562;-42
2021/04/05 10:48:51;;;;;;;44.20;2.83;;;19.70;24.70;;;;;;4345631;33;20070;-40
2021/04/05 10:51:26;;;;;;;;;;;19.90;24.80;;;;;;4345714;33;20161;-39
2021/04/05 10:54:01;;;;;;;25.23;2.07;;;20.20;25.00;;;;;;4333765;33;19954;-39
2021/04/05 10:56:29;;;;;;;17.08;1.35;;;20.50;24.30;;;;;;4333751;33;20149;-41
2021/04/05 10:59:16;;;;;;;2.47;0.52;;;20.60;24.00;;;;;;4334095;33;20161;-41
2021/04/05 11:01:47;;;;;;;9.30;0.50;;;20.80;23.40;;;;;;4333980;33;20059;-39
2021/04/05 11:04:14;;;;;;;7.30;1.02;;;20.90;23.10;;;;;;4333576;33;20591;-41
2021/04/05 11:06:41;;;;;;;15.25;1.45;;;20.70;23.20;;;;;;4345677;33;20093;-39
2021/04/05 11:09:08;;;;;;;18.87;1.37;;;20.80;23.50;;;;;;4345891;33;20078;-39
2021/04/05 11:11:35;;;;;;;14.13;1.27;;;20.80;23.70;;;;;;4345514;33;20074;-40
2021/04/05 11:14:09;;;;;;;10.57;0.60;;;20.90;23.60;;;;;;4333298;33;20059;-41
2021/04/05 11:16:35;;;;;;;3.35;0.70;;;20.90;23.20;;;;;;4345830;33;20087;-41
2021/04/05 11:19:07;;;;;;;3.20;0.50;;;20.80;23.00;;;;;;4345712;32;20145;-40
2021/04/05 11:21:39;;;;;;;27.13;1.10;;;20.60;23.30;;;;;;4302681;33;20102;-39
2021/04/05 11:24:08;;;;;;;7.20;1.23;;;20.30;23.90;;;;;;4302720;33;20083;-39
2021/04/05 11:26:35;;;;;;;23.75;1.73;;;19.90;24.20;;;;;;4302312;33;20107;-39
2021/04/05 11:29:06;;;;;;;6.22;0.60;;;19.40;24.70;;;;;;4313968;33;20087;-39
2021/04/05 11:31:41;;;;;;;28.75;3.22;;;19.00;25.10;;;;;;4314223;33;20075;-39
2021/04/05 11:34:07;;;;;;;8.35;0.57;;;18.60;25.70;;;;;;4302176;33;20086;-39
2021/04/05 11:36:48;;;;;;;2.33;0.55;;;18.40;26.10;;;;;;4314733;33;20066;-39
2021/04/05 11:39:17;;;;;;;9.98;0.70;;;18.20;26.20;;;;;;4328761;33;20067;-39
2021/04/05 11:41:52;;;;;;;8.85;0.80;;;18.00;26.50;;;;;;4304336;33;20077;-39
2021/04/05 11:44:20;;;;;;;5.65;0.50;;;17.90;26.80;;;;;;4328467;33;20055;-39
2021/04/05 11:46:47;;;;;;;11.70;1.23;;;17.90;26.70;;;;;;4304478;33;20144;-39
2021/04/05 11:49:17;;;;;;;15.95;1.40;;;17.80;26.70;;;;;;4316662;33;20241;-40
2021/04/05 11:51:53;;;;;;;2.75;0.50;;;17.80;26.60;;;;;;4305901;33;20074;-40
2021/04/05 11:54:28;;;;;;;2.35;0.47;;;17.70;26.50;;;;;;4345427;33;20063;-41
2021/04/05 11:56:56;;;;;;;21.27;3.20;;;17.50;26.80;;;;;;4343582;33;20636;-38
2021/04/05 11:59:26;;;;;;;12.25;7.72;;;17.30;27.20;;;;;;4344394;33;20508;-38
2021/04/05 12:02:03;;;;;;;11.52;4.00;;;17.10;27.50;;;;;;4332074;33;20545;-37
2021/04/05 12:05:00;;;;;;;15.77;6.55;;;17.00;27.70;;;;;;4344069;33;20135;-39
2021/04/05 12:07:26;;;;;;;22.52;13.38;;;16.80;27.60;;;;;;4333134;33;20059;-39
2021/04/05 12:10:07;;;;;;;26.08;16.08;;;16.60;27.90;;;;;;4331619;33;20172;-37
2021/04/05 12:12:51;;;;;;;10.68;2.92;;;16.30;28.40;;;;;;4344076;33;20517;-41
2021/04/05 12:15:20;;;;;;;25.52;11.75;;;16.10;28.60;;;;;;4344289;33;20463;-41
2021/04/05 12:17:53;;;;;;;12.07;6.60;;;15.90;28.80;;;;;;4331501;33;20067;-40
2021/04/05 12:20:25;;;;;;;17.42;10.65;;;15.70;28.90;;;;;;4331841;33;20086;-39
2021/04/05 12:23:10;;;;;;;14.70;6.43;;;15.70;28.80;;;;;;4345671;33;20081;-39
2021/04/05 12:25:38;;;;;;;;;;;15.80;29.00;;;;;;4344350;33;20105;-41
2021/04/05 12:28:07;;;;;;;12.27;2.92;;;15.80;28.80;;;;;;4343665;33;20039;-41
2021/04/05 12:30:34;;;;;;;6.95;0.73;;;15.90;28.70;;;;;;4344894;33;20511;-40
2021/04/05 12:33:01;;;;;;;3.83;0.60;;;15.90;28.60;;;;;;4327649;33;20083;-40
2021/04/05 12:35:28;;;;;;;3.15;0.50;;;16.00;28.50;;;;;;4322147;33;20599;-39
2021/04/05 12:38:05;;;;;;;7.85;0.65;;;16.00;28.40;;;;;;4330160;33;20063;-39
2021/04/05 12:40:37;;;;;;;4.22;0.50;;;16.10;28.60;;;;;;4331512;33;20271;-41
2021/04/05 12:43:13;;;;;;;5.10;0.50;;;16.30;28.60;;;;;;4330279;33;20199;-40
2021/04/05 12:45:51;;;;;;;20.48;1.90;;;16.40;28.50;;;;;;4329874;33;20142;-42
2021/04/05 12:48:23;;;;;;;17.83;2.15;;;16.70;28.70;;;;;;4330310;33;20167;-41
2021/04/05 12:50:56;;;;;;;10.25;0.90;;;16.90;28.40;;;;;;4330818;33;20078;-41
2021/04/05 12:53:26;;;;;;;3.33;0.57;;;17.00;28.10;;;;;;4318574;33;20075;-41
2021/04/05 12:55:53;;;;;;;14.52;1.55;;;17.00;28.10;;;;;;4342208;33;20109;-41
2021/04/05 12:58:34;;;;;;;22.52;1.58;;;16.80;28.20;;;;;;4306206;33;20172;-40
2021/04/05 13:01:02;;;;;;;5.45;0.60;;;16.70;28.40;;;;;;4329519;32;20425;-42
2021/04/05 13:03:35;;;;;;;28.45;2.22;;;16.50;28.50;;;;;;4329902;33;20538;-42
2021/04/05 13:06:04;;;;;;;16.92;1.73;;;16.40;28.80;;;;;;4330611;33;20067;-42
2021/04/05 13:08:45;;;;;;;3.47;1.05;;;16.30;28.90;;;;;;4317801;33;20539;-42
2021/04/05 13:11:26;;;;;;;13.85;1.27;;;16.20;28.90;;;;;;4318464;33;20093;-41
2021/04/05 13:14:11;;;;;;;17.92;2.28;;;16.20;28.90;;;;;;4327026;33;20562;-42
2021/04/05 13:16:58;;;;;;;9.48;0.90;;;16.10;29.00;;;;;;4316269;33;20147;-41
2021/04/05 13:19:43;;;;;;;33.80;2.40;;;16.20;28.90;;;;;;4327575;33;20187;-41
2021/04/05 13:22:30;;;;;;;19.48;1.10;;;16.20;29.10;;;;;;4329145;33;20086;-42
2021/04/05 13:25:15;;;;;;;19.73;1.33;;;16.20;29.10;;;;;;4330630;33;20512;-39
2021/04/05 13:27:42;;;;;;;23.73;1.33;;;16.30;29.00;;;;;;4344323;32;20073;-42
2021/04/05 13:30:09;;;;;;;21.02;1.42;;;16.30;29.10;;;;;;4342463;33;20075;-42
2021/04/05 13:32:38;;;;;;;5.43;0.60;;;16.20;29.10;;;;;;4342337;33;20537;-40
2021/04/05 13:35:11;;;;;;;38.97;3.47;;;16.30;29.10;;;;;;4342406;33;20131;-40
2021/04/05 13:37:47;;;;;;;29.92;1.55;;;16.30;29.30;;;;;;4343084;33;20063;-41
2021/04/05 13:40:14;;;;;;;25.55;1.55;;;16.40;29.30;;;;;;4343141;33;20122;-42